createdAt,value
2022-08-04T00:02:07.777Z,41.70
2022-08-04T00:04:44.833Z,41.50
2022-08-04T00:07:20.016Z,41.80
2022-08-04T00:10:09.510Z,41.80
2022-08-04T00:12:42.853Z,41.40
2022-08-04T00:15:16.671Z,41.60
2022-08-04T00:17:50.176Z,41.60
2022-08-04T00:20:20.241Z,41.70
2022-08-04T00:22:53.162Z,41.70
2022-08-04T00:25:21.236Z,41.80
2022-08-04T00:27:49.812Z,41.60
2022-08-04T00:30:17.745Z,41.70
2022-08-04T00:32:45.974Z,41.70
2022-08-04T00:35:15.732Z,41.80
2022-08-04T00:37:46.009Z,42.00
2022-08-04T00:40:24.512Z,42.00
2022-08-04T00:43:03.300Z,42.40
2022-08-04T00:46:15.191Z,42.10
2022-08-04T00:48:57.842Z,42.40
2022-08-04T00:51:34.205Z,42.20
2022-08-04T00:54:12.324Z,42.00
2022-08-04T00:57:04.857Z,42.20
2022-08-04T00:59:46.034Z,42.40
2022-08-04T01:02:36.580Z,42.20
2022-08-04T01:05:07.178Z,42.20
2022-08-04T01:08:01.840Z,42.00
2022-08-04T01:10:46.307Z,42.60
2022-08-04T01:13:27.607Z,42.30
2022-08-04T01:16:01.582Z,42.10
2022-08-04T01:18:36.983Z,42.00
2022-08-04T01:21:25.477Z,42.20
2022-08-04T01:24:13.454Z,42.50
2022-08-04T01:26:57.508Z,42.30
2022-08-04T01:29:43.943Z,42.30
2022-08-04T01:32:28.855Z,42.00
2022-08-04T01:35:03.385Z,42.00
2022-08-04T01:37:46.361Z,42.20
2022-08-04T01:40:16.063Z,42.40
2022-08-04T01:42:45.687Z,42.10
2022-08-04T01:45:16.743Z,42.20
2022-08-04T01:47:53.100Z,42.40
2022-08-04T01:50:22.190Z,42.40
2022-08-04T01:52:53.219Z,42.40
2022-08-04T01:55:21.833Z,42.40
2022-08-04T01:57:51.109Z,42.40
2022-08-04T02:00:23.348Z,42.60
2022-08-04T02:02:51.870Z,42.70
2022-08-04T02:05:23.118Z,42.60
2022-08-04T02:08:09.169Z,42.60
2022-08-04T02:10:59.153Z,42.60
2022-08-04T02:13:34.269Z,43.00
2022-08-04T02:16:07.924Z,42.80
2022-08-04T02:18:44.763Z,42.70
2022-08-04T02:21:16.101Z,42.80
2022-08-04T02:23:47.810Z,42.50
2022-08-04T02:26:22.778Z,42.70
2022-08-04T02:29:00.458Z,42.90
2022-08-04T02:31:34.245Z,43.30
2022-08-04T02:34:08.637Z,43.20
2022-08-04T02:36:38.801Z,43.30
2022-08-04T02:39:08.594Z,42.90
2022-08-04T02:41:38.118Z,42.90
2022-08-04T02:44:08.150Z,42.90
2022-08-04T02:46:39.352Z,42.90
2022-08-04T02:49:09.573Z,43.10
2022-08-04T02:51:42.046Z,43.00
2022-08-04T02:54:10.308Z,43.10
2022-08-04T02:56:40.572Z,43.00
2022-08-04T02:59:11.964Z,43.10
2022-08-04T03:01:57.340Z,43.00
2022-08-04T03:04:47.984Z,43.10
2022-08-04T03:07:47.553Z,43.50
2022-08-04T03:10:54.431Z,43.40
2022-08-04T03:14:05.183Z,43.20
2022-08-04T03:17:07.319Z,43.20
2022-08-04T03:20:10.479Z,43.10
2022-08-04T03:23:13.001Z,43.20
2022-08-04T03:26:19.479Z,43.10
2022-08-04T03:29:35.260Z,43.10
2022-08-04T03:32:44.921Z,42.90
2022-08-04T03:35:33.764Z,42.70
2022-08-04T03:38:25.290Z,42.60
2022-08-04T03:41:57.316Z,43.00
2022-08-04T03:44:36.615Z,43.00
2022-08-04T03:47:42.407Z,42.80
2022-08-04T03:50:43.210Z,43.10
2022-08-04T03:53:27.555Z,43.20
2022-08-04T03:56:34.211Z,43.10
2022-08-04T03:59:24.861Z,43.40
2022-08-04T04:02:22.037Z,43.20
2022-08-04T04:05:05.107Z,43.20
2022-08-04T04:08:02.046Z,43.10
2022-08-04T04:10:57.717Z,43.30
2022-08-04T04:13:50.965Z,43.30
2022-08-04T04:16:39.057Z,43.20
2022-08-04T04:19:25.152Z,43.20
2022-08-04T04:22:03.197Z,43.50
2022-08-04T04:24:59.086Z,43.40
2022-08-04T04:27:41.085Z,43.70
2022-08-04T04:30:12.395Z,43.50
2022-08-04T04:32:59.597Z,43.20
2022-08-04T04:35:38.799Z,43.70
2022-08-04T04:38:40.199Z,43.70
2022-08-04T04:41:29.769Z,44.00
2022-08-04T04:44:32.672Z,43.90
2022-08-04T04:47:08.255Z,44.00
2022-08-04T04:49:45.947Z,43.80
2022-08-04T04:52:25.363Z,43.90
2022-08-04T04:54:59.894Z,44.20
2022-08-04T04:57:53.073Z,44.00
2022-08-04T05:00:26.041Z,44.30
2022-08-04T05:03:29.482Z,44.20
2022-08-04T05:06:18.448Z,44.90
2022-08-04T05:09:23.276Z,44.90
2022-08-04T05:14:35.878Z,45.20
2022-08-04T05:15:20.591Z,45.20
2022-08-04T05:17:53.221Z,44.90
2022-08-04T05:20:24.717Z,45.10
2022-08-04T05:22:56.832Z,45.40
2022-08-04T05:25:30.057Z,45.50
2022-08-04T05:28:03.856Z,45.60
2022-08-04T05:30:36.491Z,45.70
2022-08-04T05:33:08.078Z,45.90
2022-08-04T05:36:16.751Z,46.00
2022-08-04T05:38:36.193Z,46.20
2022-08-04T05:41:05.285Z,46.30
2022-08-04T05:43:34.626Z,46.60
2022-08-04T05:46:05.344Z,46.70
2022-08-04T05:48:34.336Z,47.10
2022-08-04T05:51:04.307Z,47.30
2022-08-04T05:53:33.765Z,47.70
2022-08-04T05:56:04.077Z,48.00
2022-08-04T05:58:32.892Z,48.30
2022-08-04T06:01:03.891Z,48.50
2022-08-04T06:03:32.810Z,48.80
2022-08-04T06:06:02.388Z,48.90
2022-08-04T06:08:31.606Z,49.10
2022-08-04T06:11:04.696Z,49.20
2022-08-04T06:13:49.119Z,49.50
2022-08-04T06:16:28.961Z,49.50
2022-08-04T06:19:58.984Z,49.40
2022-08-04T06:21:51.862Z,49.60
2022-08-04T06:24:23.401Z,49.70
2022-08-04T06:26:52.496Z,49.90
2022-08-04T06:29:24.744Z,50.00
2022-08-04T06:32:29.524Z,50.20
2022-08-04T06:34:53.081Z,50.30
2022-08-04T06:37:42.977Z,50.30
2022-08-04T06:40:31.434Z,50.60
2022-08-04T06:43:00.551Z,50.80
2022-08-04T06:45:28.830Z,51.20
2022-08-04T06:47:59.291Z,52.00
2022-08-04T06:51:29.250Z,53.20
2022-08-04T06:53:16.757Z,55.10
2022-08-04T06:55:47.447Z,57.40
2022-08-04T06:58:17.442Z,59.10
2022-08-04T07:00:47.406Z,60.50
2022-08-04T07:03:19.005Z,61.10
2022-08-04T07:05:48.941Z,60.90
2022-08-04T07:08:17.452Z,60.20
2022-08-04T07:10:46.512Z,59.50
2022-08-04T07:13:15.456Z,58.60
2022-08-04T07:15:45.322Z,57.90
2022-08-04T07:18:13.245Z,56.80
2022-08-04T07:20:43.541Z,56.10
2022-08-04T07:23:13.730Z,54.80
2022-08-04T07:25:58.781Z,54.10
2022-08-04T07:28:31.777Z,53.40
2022-08-04T07:30:59.983Z,52.60
2022-08-04T07:33:28.621Z,51.80
2022-08-04T07:36:09.095Z,50.90
2022-08-04T07:38:48.251Z,50.00
2022-08-04T07:41:39.095Z,50.00
2022-08-04T07:44:08.774Z,49.00
2022-08-04T07:46:37.555Z,48.40
2022-08-04T07:49:06.546Z,48.20
2022-08-04T07:51:37.581Z,47.60
2022-08-04T07:54:07.616Z,47.30
2022-08-04T07:56:37.917Z,47.10
2022-08-04T07:59:06.709Z,46.70
2022-08-04T08:01:36.551Z,46.80
2022-08-04T08:04:07.355Z,46.20
2022-08-04T08:06:43.077Z,45.80
2022-08-04T08:09:14.508Z,45.40
2022-08-04T08:12:37.697Z,45.40
2022-08-04T08:14:33.379Z,45.30
2022-08-04T08:17:02.815Z,45.30
2022-08-04T08:19:31.444Z,44.40
2022-08-04T08:22:01.941Z,44.30
2022-08-04T08:24:31.110Z,43.90
2022-08-04T08:27:00.026Z,44.30
2022-08-04T08:29:29.906Z,43.50
2022-08-04T08:32:02.641Z,43.40
2022-08-04T08:34:34.107Z,43.50
2022-08-04T08:37:10.272Z,43.40
2022-08-04T08:39:43.517Z,43.30
2022-08-04T08:42:43.059Z,43.20
2022-08-04T08:45:32.813Z,45.50
2022-08-04T08:48:33.249Z,44.90
2022-08-04T08:51:21.915Z,45.20
2022-08-04T08:54:05.873Z,44.00
2022-08-04T08:56:45.912Z,42.40
2022-08-04T08:59:30.415Z,41.80
2022-08-04T09:02:25.437Z,42.30
2022-08-04T09:05:15.049Z,43.60
2022-08-04T09:08:03.153Z,42.60
2022-08-04T09:10:42.137Z,42.30
2022-08-04T09:13:17.584Z,41.10
2022-08-04T09:15:54.476Z,40.60
2022-08-04T09:18:27.702Z,40.00
2022-08-04T09:21:00.517Z,39.70
2022-08-04T09:23:36.972Z,39.50
2022-08-04T09:26:16.633Z,39.60
2022-08-04T09:28:54.494Z,39.50
2022-08-04T09:31:30.112Z,39.30
2022-08-04T09:34:27.657Z,38.80
2022-08-04T09:37:06.465Z,38.50
2022-08-04T09:39:52.150Z,38.50
2022-08-04T09:42:30.456Z,37.90
2022-08-04T09:45:06.618Z,37.50
2022-08-04T09:47:40.995Z,36.80
2022-08-04T09:50:30.938Z,36.70
2022-08-04T09:53:06.434Z,37.30
2022-08-04T09:55:54.100Z,36.00
2022-08-04T09:58:34.820Z,35.40
2022-08-04T10:01:07.304Z,35.00
2022-08-04T10:03:39.004Z,34.20
2022-08-04T10:06:34.103Z,33.60
2022-08-04T10:09:13.541Z,33.40
2022-08-04T10:11:59.693Z,33.60
2022-08-04T10:14:39.829Z,33.70
2022-08-04T10:17:21.399Z,33.20
2022-08-04T10:19:58.326Z,33.30
2022-08-04T10:22:44.695Z,33.40
2022-08-04T10:25:37.485Z,33.70
2022-08-04T10:28:18.665Z,33.80
2022-08-04T10:30:52.945Z,34.00
2022-08-04T10:33:26.761Z,34.10
2022-08-04T10:36:01.166Z,38.30
2022-08-04T10:38:32.365Z,34.10
2022-08-04T10:41:04.850Z,34.40
2022-08-04T10:43:46.062Z,34.20
2022-08-04T10:46:18.658Z,34.30
2022-08-04T10:48:55.124Z,34.70
2022-08-04T10:51:29.033Z,34.30
2022-08-04T10:54:00.802Z,34.40
2022-08-04T10:56:36.001Z,34.50
2022-08-04T10:59:08.102Z,34.90
2022-08-04T11:01:59.924Z,34.70
2022-08-04T11:04:37.042Z,35.20
2022-08-04T11:07:05.614Z,35.00
2022-08-04T11:09:35.309Z,35.20
2022-08-04T11:12:11.012Z,34.90
2022-08-04T11:14:45.300Z,35.10
2022-08-04T11:17:20.908Z,35.40
2022-08-04T11:19:57.584Z,35.20
2022-08-04T11:22:42.639Z,35.40
2022-08-04T11:25:20.885Z,35.60
2022-08-04T11:27:56.612Z,35.60
2022-08-04T11:30:31.619Z,35.30
2022-08-04T11:33:07.868Z,35.50
2022-08-04T11:35:41.739Z,35.50
2022-08-04T11:38:13.631Z,35.30
2022-08-04T11:40:55.896Z,35.10
2022-08-04T11:43:58.652Z,35.30
2022-08-04T11:46:36.900Z,35.40
2022-08-04T11:49:09.386Z,35.80
2022-08-04T11:51:38.023Z,36.10
2022-08-04T11:54:06.344Z,35.60
2022-08-04T11:56:37.274Z,35.80
2022-08-04T11:59:08.557Z,35.60
2022-08-04T12:01:48.680Z,36.00
2022-08-04T12:04:29.342Z,35.60
2022-08-04T12:07:21.678Z,35.90
2022-08-04T12:09:57.225Z,35.60
2022-08-04T12:12:30.669Z,35.70
2022-08-04T12:15:16.606Z,35.50
2022-08-04T12:17:53.327Z,35.60
2022-08-04T12:20:40.329Z,35.60
2022-08-04T12:23:16.731Z,35.60
2022-08-04T12:25:49.171Z,35.80
2022-08-04T12:28:25.881Z,35.80
2022-08-04T12:31:05.120Z,36.10
2022-08-04T12:34:05.414Z,35.90
2022-08-04T12:36:34.756Z,35.80
2022-08-04T12:39:11.346Z,35.20
2022-08-04T12:41:44.669Z,35.20
2022-08-04T12:44:36.463Z,35.30
2022-08-04T12:47:27.160Z,35.70
2022-08-04T12:50:01.072Z,35.70
2022-08-04T12:53:00.485Z,35.80
2022-08-04T12:55:23.798Z,35.90
2022-08-04T12:57:54.664Z,35.70
2022-08-04T13:00:31.308Z,35.70
2022-08-04T13:03:10.198Z,35.80
2022-08-04T13:05:41.114Z,35.60
2022-08-04T13:08:12.240Z,35.30
2022-08-04T13:10:43.306Z,35.50
2022-08-04T13:13:17.763Z,35.40
2022-08-04T13:15:57.483Z,35.70
2022-08-04T13:18:29.986Z,35.80
2022-08-04T13:21:21.110Z,35.90
2022-08-04T13:24:10.340Z,35.70
2022-08-04T13:26:54.852Z,35.80
2022-08-04T13:29:59.524Z,35.60
2022-08-04T13:32:23.088Z,35.70
2022-08-04T13:34:54.239Z,35.60
2022-08-04T13:37:26.320Z,35.50
2022-08-04T13:39:58.410Z,35.50
2022-08-04T13:42:27.865Z,35.50
2022-08-04T13:44:58.277Z,35.50
2022-08-04T13:47:30.212Z,35.40
2022-08-04T13:50:19.648Z,35.40
2022-08-04T13:52:49.514Z,35.60
2022-08-04T13:55:38.172Z,35.40
2022-08-04T13:58:10.069Z,35.60
2022-08-04T14:00:46.235Z,35.50
2022-08-04T14:03:24.216Z,35.90
2022-08-04T14:06:11.770Z,35.60
2022-08-04T14:08:51.409Z,35.70
2022-08-04T14:12:10.858Z,35.60
2022-08-04T14:14:16.303Z,35.80
2022-08-04T14:17:00.336Z,36.00
2022-08-04T14:19:35.850Z,36.40
2022-08-04T14:22:04.475Z,35.90
2022-08-04T14:24:32.358Z,36.00
2022-08-04T14:27:02.429Z,35.80
2022-08-04T14:29:38.758Z,35.80
2022-08-04T14:32:12.660Z,36.00
2022-08-04T14:34:44.837Z,36.00
2022-08-04T14:37:19.427Z,36.00
2022-08-04T14:40:19.186Z,36.10
2022-08-04T14:42:44.496Z,36.00
2022-08-04T14:45:31.595Z,36.10
2022-08-04T14:48:00.721Z,36.20
2022-08-04T14:50:37.219Z,36.00
2022-08-04T14:53:10.909Z,35.90
2022-08-04T14:55:40.137Z,35.80
2022-08-04T14:58:32.761Z,35.80
2022-08-04T15:01:10.264Z,36.10
2022-08-04T15:03:50.425Z,35.80
2022-08-04T15:06:23.324Z,36.00
2022-08-04T15:08:52.390Z,35.90
2022-08-04T15:11:22.652Z,35.80
2022-08-04T15:13:52.707Z,35.90
2022-08-04T15:16:21.198Z,36.30
2022-08-04T15:18:49.906Z,36.30
2022-08-04T15:21:18.423Z,36.30
2022-08-04T15:23:46.381Z,36.10
2022-08-04T15:26:17.487Z,36.10
2022-08-04T15:28:51.103Z,36.20
2022-08-04T15:32:07.468Z,36.20
2022-08-04T15:34:11.841Z,36.00
2022-08-04T15:36:57.092Z,36.10
2022-08-04T15:39:39.350Z,35.90
2022-08-04T15:42:21.025Z,36.00
2022-08-04T15:45:23.728Z,36.00
2022-08-04T15:48:27.185Z,36.10
2022-08-04T15:51:06.961Z,35.90
2022-08-04T15:54:28.042Z,35.90
2022-08-04T15:57:01.378Z,36.00
2022-08-04T16:00:03.185Z,35.90
2022-08-04T16:02:43.514Z,35.90
2022-08-04T16:05:36.907Z,36.00
2022-08-04T16:08:16.202Z,36.00
2022-08-04T16:10:46.347Z,36.00
2022-08-04T16:13:15.519Z,36.00
2022-08-04T16:15:49.583Z,36.00
2022-08-04T16:18:39.222Z,36.00
2022-08-04T16:21:19.353Z,36.00
2022-08-04T16:24:12.288Z,36.20
2022-08-04T16:26:54.902Z,36.30
2022-08-04T16:29:36.173Z,36.20
2022-08-04T16:32:22.029Z,36.10
2022-08-04T16:34:56.456Z,36.20
2022-08-04T16:37:31.037Z,36.10
2022-08-04T16:40:37.186Z,36.10
2022-08-04T16:43:08.704Z,36.20
2022-08-04T16:45:48.495Z,36.10
2022-08-04T16:48:18.147Z,36.30
2022-08-04T16:50:49.332Z,36.10
2022-08-04T16:54:02.714Z,36.30
2022-08-04T16:56:09.934Z,36.20
2022-08-04T16:58:54.440Z,36.20
2022-08-04T17:01:32.914Z,36.20
2022-08-04T17:04:06.068Z,36.10
2022-08-04T17:06:36.505Z,36.20
2022-08-04T17:09:10.156Z,36.30
2022-08-04T17:11:38.146Z,36.40
2022-08-04T17:14:06.691Z,36.50
2022-08-04T17:16:36.953Z,36.40
2022-08-04T17:19:23.824Z,36.50
2022-08-04T17:22:03.971Z,36.50
2022-08-04T17:24:36.397Z,36.40
2022-08-04T17:28:06.109Z,36.60
2022-08-04T17:29:53.474Z,36.40
2022-08-04T17:32:23.432Z,36.40
2022-08-04T17:34:54.015Z,36.50
2022-08-04T17:44:05.193Z,36.60
2022-08-04T17:46:15.469Z,37.10
2022-08-04T17:49:05.881Z,36.90
2022-08-04T17:52:04.024Z,37.10
2022-08-04T17:54:37.374Z,36.90
2022-08-04T17:57:19.625Z,37.50
2022-08-04T17:59:57.464Z,37.70
2022-08-04T18:02:32.226Z,37.50
2022-08-04T18:05:06.846Z,37.60
2022-08-04T18:08:39.479Z,37.70
2022-08-04T18:10:51.626Z,37.80
2022-08-04T18:13:25.260Z,38.30
2022-08-04T18:16:02.906Z,38.00
2022-08-04T18:18:31.020Z,38.50
2022-08-04T18:21:03.339Z,38.10
2022-08-04T18:23:33.397Z,38.20
2022-08-04T18:26:02.071Z,38.30
2022-08-04T18:28:33.484Z,38.50
2022-08-04T18:31:02.227Z,38.60
2022-08-04T18:33:40.366Z,38.60
2022-08-04T18:36:33.132Z,38.50
2022-08-04T18:38:59.173Z,38.50
2022-08-04T18:41:27.713Z,38.40
2022-08-04T18:43:57.849Z,38.40
2022-08-04T18:46:28.174Z,38.70
2022-08-04T18:48:57.956Z,38.70
2022-08-04T18:51:31.089Z,38.70
2022-08-04T18:54:00.225Z,38.90
2022-08-04T18:59:22.674Z,39.00
2022-08-04T19:02:13.303Z,39.00
2022-08-04T19:04:38.621Z,39.00
2022-08-04T19:07:23.577Z,39.00
2022-08-04T19:09:58.400Z,39.20
2022-08-04T19:12:28.441Z,39.20
2022-08-04T19:15:08.490Z,39.40
2022-08-04T19:17:53.456Z,39.60
2022-08-04T19:20:26.528Z,39.40
2022-08-04T19:24:10.837Z,39.40
2022-08-04T19:28:34.826Z,39.50
2022-08-04T19:31:05.198Z,39.60
2022-08-04T19:33:58.390Z,39.90
2022-08-04T19:36:27.729Z,39.90
2022-08-04T19:38:58.287Z,39.80
2022-08-04T19:41:26.962Z,40.00
2022-08-04T19:43:55.360Z,40.00
2022-08-04T19:46:28.819Z,40.00
2022-08-04T19:48:59.334Z,40.50
2022-08-04T19:51:29.554Z,40.20
2022-08-04T19:54:02.895Z,40.30
2022-08-04T19:56:40.618Z,40.40
2022-08-04T19:59:09.672Z,40.40
2022-08-04T20:01:45.377Z,40.50
2022-08-04T20:04:14.645Z,40.80
2022-08-04T20:06:43.003Z,40.60
2022-08-04T20:11:59.434Z,40.90
2022-08-04T20:14:32.727Z,40.70
2022-08-04T20:17:10.176Z,41.00
2022-08-04T20:19:39.025Z,41.20
2022-08-04T20:22:50.962Z,41.00
2022-08-04T20:28:00.031Z,41.00
2022-08-04T20:30:29.479Z,40.90
2022-08-04T20:33:00.705Z,41.10
2022-08-04T20:35:29.256Z,41.30
2022-08-04T20:38:00.938Z,41.30
2022-08-04T20:40:29.936Z,41.30
2022-08-04T20:42:58.188Z,41.30
2022-08-04T20:45:31.804Z,41.40
2022-08-04T20:48:15.529Z,41.50
2022-08-04T20:50:46.172Z,41.60
2022-08-04T20:56:02.235Z,41.60
2022-08-04T20:58:30.866Z,42.00
2022-08-04T21:00:58.858Z,41.40
2022-08-04T21:03:38.787Z,41.60
2022-08-04T21:06:16.099Z,42.00
2022-08-04T21:08:56.766Z,41.90
2022-08-04T21:11:32.751Z,41.90
2022-08-04T21:14:01.495Z,42.00
2022-08-04T21:16:54.177Z,42.00
2022-08-04T21:19:18.940Z,42.10
2022-08-04T21:21:53.500Z,42.20
2022-08-04T21:24:26.083Z,42.10
2022-08-04T21:26:56.604Z,42.20
2022-08-04T21:29:35.285Z,42.20
2022-08-04T21:32:05.638Z,42.20
2022-08-04T21:34:39.379Z,42.20
2022-08-04T21:37:16.069Z,42.50
2022-08-04T21:39:50.623Z,42.40
2022-08-04T21:42:27.684Z,42.30
2022-08-04T21:44:57.991Z,41.80
2022-08-04T21:47:25.957Z,42.40
2022-08-04T21:50:19.796Z,42.50
2022-08-04T21:52:49.815Z,42.60
2022-08-04T21:55:19.094Z,42.50
2022-08-04T21:57:49.570Z,42.60
2022-08-04T22:00:19.775Z,42.70
2022-08-04T22:02:53.322Z,42.80
2022-08-04T22:05:23.429Z,42.70
2022-08-04T22:07:52.033Z,42.90
2022-08-04T22:10:31.889Z,42.90
2022-08-04T22:13:06.721Z,42.90
2022-08-04T22:16:05.367Z,42.90
2022-08-04T22:18:24.635Z,42.90
2022-08-04T22:20:57.225Z,42.70
2022-08-04T22:23:26.195Z,43.00
2022-08-04T22:25:55.563Z,42.90
2022-08-04T22:28:25.424Z,43.00
2022-08-04T22:30:56.575Z,43.10
2022-08-04T22:33:53.895Z,43.00
2022-08-04T22:36:16.514Z,43.20
2022-08-04T22:38:48.782Z,43.40
2022-08-04T22:41:21.442Z,43.30
2022-08-04T22:44:01.647Z,43.40
2022-08-04T22:46:30.978Z,43.20
2022-08-04T22:48:58.987Z,43.30
2022-08-04T22:51:28.498Z,43.20
2022-08-04T22:53:58.122Z,43.40
2022-08-04T22:56:38.178Z,43.30
2022-08-04T22:59:10.872Z,43.30
2022-08-04T23:02:00.910Z,43.20
2022-08-04T23:04:27.787Z,43.30
2022-08-04T23:06:57.013Z,43.30
2022-08-04T23:09:49.435Z,43.70
2022-08-04T23:12:28.926Z,43.60
2022-08-04T23:14:58.734Z,43.50
2022-08-04T23:17:28.346Z,43.60
2022-08-04T23:19:58.775Z,43.70
2022-08-04T23:22:41.021Z,43.70
2022-08-04T23:25:16.398Z,44.00
2022-08-04T23:27:50.896Z,43.60
2022-08-04T23:30:21.933Z,43.70
2022-08-04T23:32:53.622Z,43.70
2022-08-04T23:35:22.490Z,43.80
2022-08-04T23:37:57.087Z,43.80
2022-08-04T23:40:33.781Z,43.90
2022-08-04T23:43:17.149Z,43.80
2022-08-04T23:46:04.940Z,43.70
2022-08-04T23:48:34.263Z,43.70
2022-08-04T23:51:07.652Z,43.60
2022-08-04T23:54:02.225Z,43.90
2022-08-04T23:56:34.108Z,43.80
2022-08-04T23:59:03.677Z,43.60
